createdAt,value
2019-03-22T00:02:14.375Z,4.83
2019-03-22T00:04:42.657Z,4.47
2019-03-22T00:07:11.030Z,4.57
2019-03-22T00:09:39.307Z,5.50
2019-03-22T00:12:07.602Z,4.87
2019-03-22T00:14:37.030Z,4.63
2019-03-22T00:17:05.537Z,4.27
2019-03-22T00:19:34.169Z,5.10
2019-03-22T00:22:02.510Z,5.17
2019-03-22T00:24:30.815Z,4.80
2019-03-22T00:26:59.232Z,5.10
2019-03-22T00:29:27.517Z,4.57
2019-03-22T00:31:55.799Z,4.67
2019-03-22T00:34:29.780Z,4.80
2019-03-22T00:36:58.052Z,5.00
2019-03-22T00:39:26.327Z,5.37
2019-03-22T00:41:54.620Z,5.73
2019-03-22T00:44:22.958Z,4.73
2019-03-22T00:46:51.248Z,4.40
2019-03-22T00:49:19.512Z,4.53
2019-03-22T00:51:47.808Z,5.10
2019-03-22T00:54:16.075Z,4.47
2019-03-22T00:56:44.364Z,4.90
2019-03-22T00:59:12.640Z,5.03
2019-03-22T01:01:40.914Z,4.90
2019-03-22T01:04:09.192Z,5.70
2019-03-22T01:06:37.474Z,5.27
2019-03-22T01:09:06.093Z,5.00
2019-03-22T01:11:34.464Z,5.20
2019-03-22T01:14:02.736Z,4.90
2019-03-22T01:16:31.010Z,5.03
2019-03-22T01:18:59.290Z,5.30
2019-03-22T01:21:27.578Z,5.10
2019-03-22T01:23:55.852Z,5.20
2019-03-22T01:26:24.134Z,4.63
2019-03-22T01:28:52.406Z,4.70
2019-03-22T01:31:20.696Z,5.10
2019-03-22T01:33:48.968Z,4.87
2019-03-22T01:36:17.251Z,6.67
2019-03-22T01:38:45.530Z,5.30
2019-03-22T01:41:13.825Z,5.73
2019-03-22T01:43:42.093Z,5.63
2019-03-22T01:46:10.402Z,4.70
2019-03-22T01:48:38.741Z,6.27
2019-03-22T01:51:07.098Z,5.53
2019-03-22T01:53:35.449Z,5.30
2019-03-22T01:56:03.722Z,5.63
2019-03-22T01:58:32.089Z,5.37
2019-03-22T02:01:00.358Z,5.23
2019-03-22T02:03:28.654Z,5.30
2019-03-22T02:05:57.042Z,5.27
2019-03-22T02:08:25.367Z,5.70
2019-03-22T02:10:53.637Z,5.27
2019-03-22T02:13:21.948Z,5.53
2019-03-22T02:15:50.215Z,6.23
2019-03-22T02:18:18.495Z,5.10
2019-03-22T02:20:46.795Z,6.90
2019-03-22T02:23:15.066Z,5.53
2019-03-22T02:25:43.363Z,5.27
2019-03-22T02:28:11.640Z,5.40
2019-03-22T02:30:39.934Z,5.47
2019-03-22T02:33:08.302Z,6.00
2019-03-22T02:35:36.655Z,5.13
2019-03-22T02:38:04.938Z,6.13
2019-03-22T02:40:33.312Z,5.70
2019-03-22T02:43:01.582Z,5.20
2019-03-22T02:45:29.876Z,5.27
2019-03-22T02:47:58.229Z,5.20
2019-03-22T02:50:26.595Z,5.03
2019-03-22T02:52:54.863Z,5.50
2019-03-22T02:55:23.151Z,5.03
2019-03-22T02:57:51.438Z,5.50
2019-03-22T03:00:19.792Z,4.83
2019-03-22T03:02:48.535Z,6.27
2019-03-22T03:05:16.949Z,5.73
2019-03-22T03:07:45.296Z,5.50
2019-03-22T03:10:15.938Z,5.27
2019-03-22T03:12:44.778Z,6.80
2019-03-22T03:15:16.343Z,4.93
2019-03-22T03:17:44.693Z,5.57
2019-03-22T03:20:17.332Z,5.07
2019-03-22T03:22:45.604Z,6.57
2019-03-22T03:25:14.063Z,6.30
2019-03-22T03:27:42.355Z,5.43
2019-03-22T03:30:14.225Z,5.00
2019-03-22T03:32:42.574Z,6.03
2019-03-22T03:35:10.956Z,5.20
2019-03-22T03:37:39.289Z,5.50
2019-03-22T03:40:12.526Z,4.73
2019-03-22T03:42:40.893Z,5.30
2019-03-22T03:45:15.076Z,6.13
2019-03-22T03:47:43.366Z,5.23
2019-03-22T03:50:11.721Z,5.00
2019-03-22T03:52:39.996Z,4.93
2019-03-22T03:55:08.265Z,5.70
2019-03-22T03:57:36.559Z,5.77
2019-03-22T04:00:07.013Z,5.17
2019-03-22T04:02:35.376Z,6.07
2019-03-22T04:05:04.290Z,5.53
2019-03-22T04:07:32.572Z,5.17
2019-03-22T04:10:00.847Z,5.37
2019-03-22T04:12:29.152Z,5.47
2019-03-22T04:14:57.499Z,5.93
2019-03-22T04:17:25.851Z,4.87
2019-03-22T04:19:54.216Z,5.30
2019-03-22T04:22:22.491Z,5.27
2019-03-22T04:24:50.850Z,6.10
2019-03-22T04:27:19.206Z,5.03
2019-03-22T04:29:47.488Z,6.40
2019-03-22T04:32:15.763Z,5.97
2019-03-22T04:34:44.462Z,5.33
2019-03-22T04:37:13.058Z,5.77
2019-03-22T04:39:41.479Z,6.30
2019-03-22T04:42:10.525Z,5.77
2019-03-22T04:44:38.826Z,5.40
2019-03-22T04:47:07.129Z,5.77
2019-03-22T04:49:35.559Z,5.40
2019-03-22T04:52:03.917Z,6.23
2019-03-22T04:54:32.196Z,5.63
2019-03-22T04:57:00.502Z,6.73
2019-03-22T04:59:28.848Z,5.80
2019-03-22T05:01:57.215Z,6.13
2019-03-22T05:04:25.582Z,5.60
2019-03-22T05:06:53.956Z,6.93
2019-03-22T05:09:23.081Z,6.03
2019-03-22T05:11:51.395Z,6.20
2019-03-22T05:14:19.758Z,6.43
2019-03-22T05:16:48.120Z,7.00
2019-03-22T05:19:16.509Z,6.30
2019-03-22T05:21:44.929Z,6.37
2019-03-22T05:24:13.291Z,6.47
2019-03-22T05:26:41.565Z,7.03
2019-03-22T05:29:09.937Z,5.97
2019-03-22T05:31:44.519Z,6.73
2019-03-22T05:34:12.813Z,7.57
2019-03-22T05:36:41.086Z,6.47
2019-03-22T05:39:11.495Z,5.97
2019-03-22T05:41:39.587Z,6.20
2019-03-22T05:44:07.944Z,6.20
2019-03-22T05:46:36.221Z,6.93
2019-03-22T05:49:04.528Z,6.97
2019-03-22T05:51:33.047Z,6.33
2019-03-22T05:54:01.333Z,6.57
2019-03-22T05:56:29.685Z,6.73
2019-03-22T05:58:58.109Z,7.73
2019-03-22T06:01:26.393Z,8.23
2019-03-22T06:03:54.670Z,6.87
2019-03-22T06:06:22.948Z,7.03
2019-03-22T06:08:51.224Z,6.87
2019-03-22T06:11:19.514Z,6.90
2019-03-22T06:13:47.787Z,6.90
2019-03-22T06:16:16.581Z,6.90
2019-03-22T06:18:44.863Z,7.47
2019-03-22T06:21:13.228Z,7.53
2019-03-22T06:23:41.500Z,6.87
2019-03-22T06:26:09.788Z,6.73
2019-03-22T06:28:38.058Z,6.73
2019-03-22T06:31:06.330Z,6.57
2019-03-22T06:33:34.623Z,7.00
2019-03-22T06:36:03.048Z,7.17
2019-03-22T06:38:31.372Z,7.50
2019-03-22T06:40:59.646Z,7.17
2019-03-22T06:43:27.942Z,7.70
2019-03-22T06:45:56.299Z,7.73
2019-03-22T06:48:24.663Z,7.33
2019-03-22T06:50:52.942Z,8.77
2019-03-22T06:53:21.435Z,9.43
2019-03-22T06:55:49.757Z,8.70
2019-03-22T06:58:18.029Z,8.40
2019-03-22T07:00:46.320Z,9.43
2019-03-22T07:03:14.603Z,8.70
2019-03-22T07:05:42.965Z,8.67
2019-03-22T07:08:11.239Z,8.73
2019-03-22T07:10:39.543Z,8.90
2019-03-22T07:13:07.825Z,9.63
2019-03-22T07:15:36.171Z,10.30
2019-03-22T07:18:04.468Z,8.63
2019-03-22T07:20:32.827Z,8.80
2019-03-22T07:23:01.115Z,9.57
2019-03-22T07:25:29.408Z,8.43
2019-03-22T07:27:57.773Z,8.37
2019-03-22T07:30:26.049Z,8.83
2019-03-22T07:32:54.359Z,9.63
2019-03-22T07:35:22.631Z,9.10
2019-03-22T07:37:50.910Z,9.60
2019-03-22T07:40:19.203Z,9.23
2019-03-22T07:42:47.606Z,9.30
2019-03-22T07:45:15.931Z,9.33
2019-03-22T07:47:44.207Z,8.70
2019-03-22T07:50:12.871Z,8.53
2019-03-22T07:52:41.143Z,9.23
2019-03-22T07:55:09.433Z,8.63
2019-03-22T07:57:37.719Z,9.40
2019-03-22T08:00:08.809Z,9.57
2019-03-22T08:02:37.089Z,8.87
2019-03-22T08:05:06.212Z,9.33
2019-03-22T08:07:34.490Z,9.00
2019-03-22T08:10:03.228Z,10.20
2019-03-22T08:12:31.546Z,9.03
2019-03-22T08:14:59.933Z,9.10
2019-03-22T08:17:28.258Z,8.93
2019-03-22T08:19:57.365Z,8.77
2019-03-22T08:22:25.898Z,9.53
2019-03-22T08:24:54.266Z,9.20
2019-03-22T08:27:22.622Z,9.07
2019-03-22T08:29:50.892Z,8.37
2019-03-22T08:32:19.184Z,9.70
2019-03-22T08:34:47.880Z,9.07
2019-03-22T08:37:16.391Z,8.83
2019-03-22T08:39:44.699Z,10.33
2019-03-22T08:42:13.049Z,9.57
2019-03-22T08:44:41.348Z,8.93
2019-03-22T08:47:09.714Z,9.63
2019-03-22T08:49:38.223Z,9.53
2019-03-22T08:52:06.614Z,8.27
2019-03-22T08:54:37.021Z,9.20
2019-03-22T08:57:04.942Z,9.93
2019-03-22T08:59:33.269Z,9.57
2019-03-22T09:02:01.547Z,9.60
2019-03-22T09:04:29.836Z,9.00
2019-03-22T09:06:59.140Z,9.50
2019-03-22T09:09:27.559Z,9.00
2019-03-22T09:11:55.927Z,9.63
2019-03-22T09:14:24.306Z,8.70
2019-03-22T09:16:52.579Z,9.77
2019-03-22T09:19:20.879Z,9.50
2019-03-22T09:21:49.223Z,9.50
2019-03-22T09:24:19.031Z,10.63
2019-03-22T09:26:48.172Z,11.63
2019-03-22T09:29:16.852Z,9.50
2019-03-22T09:31:45.171Z,9.77
2019-03-22T09:34:13.460Z,10.70
2019-03-22T09:36:41.744Z,9.97
2019-03-22T09:39:10.101Z,10.90
2019-03-22T09:41:38.918Z,10.50
2019-03-22T09:44:07.248Z,9.03
2019-03-22T09:46:35.555Z,9.13
2019-03-22T09:49:03.902Z,9.47
2019-03-22T09:51:32.386Z,9.17
2019-03-22T09:54:00.744Z,9.03
2019-03-22T09:56:29.094Z,8.70
2019-03-22T09:58:57.419Z,7.83
2019-03-22T10:01:25.743Z,8.37
2019-03-22T10:03:54.199Z,9.50
2019-03-22T10:06:22.520Z,8.83
2019-03-22T10:08:50.805Z,8.47
2019-03-22T10:11:19.171Z,8.67
2019-03-22T10:13:48.464Z,9.63
2019-03-22T10:16:17.119Z,8.90
2019-03-22T10:18:45.471Z,9.37
2019-03-22T10:21:22.503Z,9.27
2019-03-22T10:23:43.908Z,9.67
2019-03-22T10:26:12.243Z,9.47
2019-03-22T10:28:40.534Z,9.67
2019-03-22T10:31:08.819Z,10.00
2019-03-22T10:33:37.263Z,9.70
2019-03-22T10:36:05.572Z,8.67
2019-03-22T10:38:33.996Z,9.50
2019-03-22T10:41:02.741Z,9.73
2019-03-22T10:43:31.079Z,9.57
2019-03-22T10:45:59.347Z,9.43
2019-03-22T10:48:27.670Z,9.63
2019-03-22T10:50:55.991Z,9.63
2019-03-22T10:53:24.346Z,9.87
2019-03-22T10:55:52.715Z,9.20
2019-03-22T10:58:21.643Z,9.60
2019-03-22T11:00:50.177Z,10.33
2019-03-22T11:03:18.537Z,9.10
2019-03-22T11:05:46.833Z,10.20
2019-03-22T11:08:15.195Z,9.53
2019-03-22T11:10:43.553Z,9.97
2019-03-22T11:13:11.839Z,9.67
2019-03-22T11:15:48.092Z,10.23
2019-03-22T11:18:10.139Z,10.13
2019-03-22T11:20:38.433Z,10.13
2019-03-22T11:23:06.791Z,10.13
2019-03-22T11:25:35.135Z,10.80
2019-03-22T11:28:03.433Z,11.03
2019-03-22T11:30:31.779Z,10.73
2019-03-22T11:33:00.074Z,10.77
2019-03-22T11:35:28.425Z,10.43
2019-03-22T11:37:56.702Z,10.33
2019-03-22T11:40:25.056Z,10.73
2019-03-22T11:42:53.336Z,9.80
2019-03-22T11:45:21.708Z,10.57
2019-03-22T11:47:49.982Z,9.63
2019-03-22T11:50:18.289Z,10.10
2019-03-22T11:52:46.636Z,10.33
2019-03-22T11:55:15.036Z,10.70
2019-03-22T11:57:43.374Z,10.40
2019-03-22T12:00:22.986Z,10.23
2019-03-22T12:02:51.262Z,10.63
2019-03-22T12:05:19.576Z,10.73
2019-03-22T12:07:47.846Z,9.97
2019-03-22T12:10:18.834Z,10.33
2019-03-22T12:12:47.186Z,9.90
2019-03-22T12:15:18.459Z,10.40
2019-03-22T12:17:46.756Z,10.80
2019-03-22T12:20:17.966Z,10.13
2019-03-22T12:22:46.359Z,10.40
2019-03-22T12:25:17.433Z,10.07
2019-03-22T12:27:45.820Z,9.97
2019-03-22T12:30:16.393Z,10.73
2019-03-22T12:32:44.742Z,10.30
2019-03-22T12:35:14.357Z,10.60
2019-03-22T12:37:42.655Z,10.27
2019-03-22T12:40:21.872Z,10.80
2019-03-22T12:42:50.246Z,11.40
2019-03-22T12:45:26.916Z,10.73
2019-03-22T12:47:55.216Z,9.93
2019-03-22T12:50:23.774Z,10.80
2019-03-22T12:52:52.152Z,10.67
2019-03-22T12:55:20.517Z,10.13
2019-03-22T12:57:48.799Z,10.67
2019-03-22T13:00:24.739Z,10.50
2019-03-22T13:02:53.025Z,10.27
2019-03-22T13:05:21.590Z,10.37
2019-03-22T13:07:49.879Z,10.53
2019-03-22T13:10:23.518Z,11.50
2019-03-22T13:12:51.835Z,12.47
2019-03-22T13:15:20.205Z,13.10
2019-03-22T13:17:48.488Z,13.87
2019-03-22T13:20:16.855Z,13.20
2019-03-22T13:22:45.139Z,14.97
2019-03-22T13:25:14.779Z,13.47
2019-03-22T13:27:45.747Z,13.90
2019-03-22T13:30:31.595Z,13.17
2019-03-22T13:32:59.957Z,14.50
2019-03-22T13:35:28.333Z,12.07
2019-03-22T13:37:56.629Z,13.17
2019-03-22T13:40:24.932Z,13.03
2019-03-22T13:42:53.352Z,11.77
2019-03-22T13:45:24.739Z,11.30
2019-03-22T13:47:53.110Z,12.17
2019-03-22T13:50:21.531Z,16.23
2019-03-22T13:52:49.896Z,11.80
2019-03-22T13:55:22.544Z,11.37
2019-03-22T13:57:53.648Z,11.23
2019-03-22T14:00:21.947Z,11.73
2019-03-22T14:02:50.228Z,11.20
2019-03-22T14:05:18.606Z,9.53
2019-03-22T14:07:46.886Z,9.90
2019-03-22T14:10:30.063Z,10.67
2019-03-22T14:13:02.016Z,11.93
2019-03-22T14:15:30.376Z,9.83
2019-03-22T14:17:58.698Z,10.07
2019-03-22T14:20:27.036Z,10.63
2019-03-22T14:22:55.328Z,11.03
2019-03-22T14:25:23.617Z,11.63
2019-03-22T14:27:52.514Z,11.57
2019-03-22T14:30:20.844Z,11.23
2019-03-22T14:32:49.143Z,11.07
2019-03-22T14:35:17.424Z,9.90
2019-03-22T14:37:45.718Z,9.93
2019-03-22T14:40:15.770Z,12.97
2019-03-22T14:42:44.023Z,10.87
2019-03-22T14:45:12.310Z,12.30
2019-03-22T14:47:40.758Z,10.77
2019-03-22T14:50:09.170Z,11.73
2019-03-22T14:52:37.500Z,11.07
2019-03-22T14:55:06.543Z,9.83
2019-03-22T14:57:34.971Z,11.27
2019-03-22T15:00:05.257Z,10.77
2019-03-22T15:02:33.549Z,11.37
2019-03-22T15:05:01.825Z,11.33
2019-03-22T15:07:30.140Z,10.73
2019-03-22T15:09:58.487Z,11.80
2019-03-22T15:12:26.839Z,11.17
2019-03-22T15:15:05.809Z,12.30
2019-03-22T15:17:38.442Z,11.53
2019-03-22T15:20:11.049Z,11.90
2019-03-22T15:22:43.789Z,11.20
2019-03-22T15:25:30.114Z,11.57
2019-03-22T15:28:02.813Z,11.17
2019-03-22T15:30:50.884Z,13.33
2019-03-22T15:33:34.440Z,12.07
2019-03-22T15:36:01.700Z,10.93
2019-03-22T15:38:48.804Z,12.33
2019-03-22T15:41:17.269Z,11.17
2019-03-22T15:43:45.553Z,12.63
2019-03-22T15:46:13.843Z,10.47
2019-03-22T15:48:42.117Z,11.30
2019-03-22T15:51:10.417Z,12.53
2019-03-22T15:53:38.765Z,12.03
2019-03-22T15:56:07.055Z,13.93
2019-03-22T15:58:36.292Z,12.80
2019-03-22T16:01:05.410Z,12.20
2019-03-22T16:03:33.687Z,11.87
2019-03-22T16:06:01.992Z,12.80
2019-03-22T16:08:30.339Z,11.67
2019-03-22T16:10:58.645Z,12.67
2019-03-22T16:13:29.695Z,13.70
2019-03-22T16:15:58.145Z,12.80
2019-03-22T16:18:26.475Z,11.37
2019-03-22T16:20:59.955Z,13.30
2019-03-22T16:23:24.861Z,11.97
2019-03-22T16:25:53.272Z,11.13
2019-03-22T16:28:21.626Z,12.87
2019-03-22T16:30:49.899Z,11.57
2019-03-22T16:33:18.215Z,10.30
2019-03-22T16:35:46.645Z,12.00
2019-03-22T16:38:15.037Z,11.00
2019-03-22T16:40:43.407Z,11.93
2019-03-22T16:43:11.779Z,12.43
2019-03-22T16:45:41.282Z,12.40
2019-03-22T16:48:09.593Z,12.67
2019-03-22T16:50:37.977Z,13.23
2019-03-22T16:53:06.284Z,15.97
2019-03-22T16:55:34.574Z,18.50
2019-03-22T16:58:02.968Z,19.97
2019-03-22T17:00:31.569Z,22.73
2019-03-22T17:03:00.427Z,27.10
2019-03-22T17:05:28.954Z,27.43
2019-03-22T17:07:57.344Z,29.37
2019-03-22T17:10:25.700Z,31.77
2019-03-22T17:12:54.184Z,34.73
2019-03-22T17:15:22.866Z,34.67
2019-03-22T17:17:51.236Z,36.00
2019-03-22T17:20:19.632Z,37.67
2019-03-22T17:22:47.940Z,36.63
2019-03-22T17:25:16.328Z,38.17
2019-03-22T17:27:44.701Z,33.43
2019-03-22T17:30:13.143Z,32.53
2019-03-22T17:32:41.505Z,31.90
2019-03-22T17:35:09.952Z,30.07
2019-03-22T17:37:38.314Z,32.67
2019-03-22T17:40:07.668Z,32.37
2019-03-22T17:42:35.968Z,31.70
2019-03-22T17:45:07.597Z,32.23
2019-03-22T17:47:35.910Z,29.23
2019-03-22T17:50:06.042Z,29.07
2019-03-22T17:52:34.419Z,28.50
2019-03-22T17:55:03.151Z,27.73
2019-03-22T17:57:31.469Z,29.10
2019-03-22T17:59:59.832Z,28.67
2019-03-22T18:02:28.128Z,28.57
2019-03-22T18:04:56.498Z,29.43
2019-03-22T18:07:27.215Z,28.47
2019-03-22T18:09:55.536Z,25.60
2019-03-22T18:12:23.959Z,28.70
2019-03-22T18:14:52.262Z,27.53
2019-03-22T18:17:20.541Z,28.57
2019-03-22T18:19:48.846Z,27.10
2019-03-22T18:22:17.320Z,28.13
2019-03-22T18:24:45.627Z,27.33
2019-03-22T18:27:13.998Z,24.33
2019-03-22T18:29:42.591Z,25.77
2019-03-22T18:32:10.958Z,27.30
2019-03-22T18:34:39.235Z,24.67
2019-03-22T18:37:07.531Z,23.60
2019-03-22T18:39:35.809Z,25.67
2019-03-22T18:42:04.109Z,23.20
2019-03-22T18:44:32.392Z,24.43
2019-03-22T18:47:00.763Z,23.87
2019-03-22T18:49:29.042Z,24.17
2019-03-22T18:51:57.361Z,24.03
2019-03-22T18:54:25.643Z,25.47
2019-03-22T18:56:53.922Z,24.40
2019-03-22T18:59:22.217Z,22.67
2019-03-22T19:01:50.496Z,21.57
2019-03-22T19:04:18.871Z,21.73
2019-03-22T19:06:47.151Z,21.60
2019-03-22T19:09:15.438Z,20.93
2019-03-22T19:11:43.721Z,20.73
2019-03-22T19:14:12.574Z,20.57
2019-03-22T19:16:40.863Z,19.93
2019-03-22T19:19:09.153Z,20.37
2019-03-22T19:21:37.447Z,21.77
2019-03-22T19:24:05.835Z,21.47
2019-03-22T19:26:34.109Z,20.37
2019-03-22T19:29:02.397Z,21.87
2019-03-22T19:31:31.905Z,20.87
2019-03-22T19:34:00.184Z,20.03
2019-03-22T19:36:28.488Z,19.30
2019-03-22T19:38:56.773Z,19.67
2019-03-22T19:41:25.069Z,19.17
2019-03-22T19:43:53.349Z,19.10
2019-03-22T19:46:21.655Z,21.80
2019-03-22T19:48:50.014Z,18.63
2019-03-22T19:51:18.379Z,16.87
2019-03-22T19:53:46.737Z,16.30
2019-03-22T19:56:15.027Z,17.67
2019-03-22T19:58:43.325Z,17.70
2019-03-22T20:01:11.610Z,16.67
2019-03-22T20:03:39.987Z,19.60
2019-03-22T20:06:08.263Z,17.43
2019-03-22T20:08:36.571Z,18.00
2019-03-22T20:11:04.947Z,19.70
2019-03-22T20:13:33.295Z,16.80
2019-03-22T20:16:01.605Z,17.37
2019-03-22T20:18:29.907Z,18.70
2019-03-22T20:20:58.287Z,16.10
2019-03-22T20:23:26.653Z,18.50
2019-03-22T20:25:55.003Z,16.37
2019-03-22T20:28:23.297Z,18.70
2019-03-22T20:30:51.699Z,16.80
2019-03-22T20:33:20.049Z,15.17
2019-03-22T20:35:48.361Z,18.57
2019-03-22T20:38:16.641Z,15.97
2019-03-22T20:40:44.944Z,16.27
2019-03-22T20:43:13.307Z,16.27
2019-03-22T20:45:41.617Z,15.87
2019-03-22T20:48:09.970Z,15.30
2019-03-22T20:50:38.341Z,15.53
2019-03-22T20:53:06.627Z,16.63
2019-03-22T20:55:34.923Z,13.97
2019-03-22T20:58:03.227Z,15.57
2019-03-22T21:00:31.593Z,17.43
2019-03-22T21:03:00.111Z,17.50
2019-03-22T21:05:28.573Z,16.40
2019-03-22T21:07:56.854Z,15.13
2019-03-22T21:10:25.135Z,15.10
2019-03-22T21:12:53.516Z,17.10
2019-03-22T21:15:24.740Z,15.07
2019-03-22T21:17:51.830Z,14.87
2019-03-22T21:20:20.184Z,17.33
2019-03-22T21:22:48.487Z,15.97
2019-03-22T21:25:16.765Z,15.47
2019-03-22T21:27:45.075Z,14.80
2019-03-22T21:30:14.788Z,15.77
2019-03-22T21:32:45.664Z,14.77
2019-03-22T21:35:21.846Z,16.13
2019-03-22T21:37:43.100Z,15.93
2019-03-22T21:40:11.471Z,15.63
2019-03-22T21:42:39.751Z,15.27
2019-03-22T21:45:08.993Z,15.10
2019-03-22T21:47:37.280Z,16.10
2019-03-22T21:50:07.120Z,15.27
2019-03-22T21:52:35.398Z,14.87
2019-03-22T21:55:03.705Z,15.53
2019-03-22T21:57:31.997Z,16.13
2019-03-22T22:00:00.405Z,17.23
2019-03-22T22:02:28.727Z,14.60
2019-03-22T22:04:57.007Z,15.40
2019-03-22T22:07:25.305Z,15.13
2019-03-22T22:09:53.588Z,15.10
2019-03-22T22:12:21.966Z,15.27
2019-03-22T22:14:50.306Z,15.27
2019-03-22T22:17:18.598Z,15.93
2019-03-22T22:19:46.880Z,16.30
2019-03-22T22:22:15.247Z,16.30
2019-03-22T22:24:43.532Z,15.30
2019-03-22T22:27:14.069Z,15.13
2019-03-22T22:29:41.996Z,14.37
2019-03-22T22:32:10.290Z,15.27
2019-03-22T22:34:38.650Z,15.33
2019-03-22T22:37:06.941Z,15.03
2019-03-22T22:39:35.219Z,15.07
2019-03-22T22:42:03.524Z,14.10
2019-03-22T22:44:31.885Z,14.73
2019-03-22T22:47:00.188Z,14.87
2019-03-22T22:49:28.471Z,14.60
2019-03-22T22:51:56.799Z,16.27
2019-03-22T22:54:25.093Z,14.70
2019-03-22T22:56:53.451Z,16.17
2019-03-22T22:59:21.757Z,14.83
2019-03-22T23:01:50.111Z,16.23
2019-03-22T23:04:18.903Z,16.50
2019-03-22T23:06:47.189Z,16.93
2019-03-22T23:09:15.555Z,16.47
2019-03-22T23:11:43.908Z,15.20
2019-03-22T23:14:12.197Z,15.13
2019-03-22T23:16:40.479Z,16.03
2019-03-22T23:19:08.859Z,16.07
2019-03-22T23:21:37.137Z,16.97
2019-03-22T23:24:05.440Z,18.27
2019-03-22T23:26:33.721Z,15.27
2019-03-22T23:29:02.023Z,18.67
2019-03-22T23:31:30.311Z,17.73
2019-03-22T23:33:58.614Z,17.13
2019-03-22T23:36:26.973Z,17.33
2019-03-22T23:38:55.357Z,16.90
2019-03-22T23:41:23.631Z,18.13
2019-03-22T23:43:51.936Z,17.20
2019-03-22T23:46:20.211Z,17.57
2019-03-22T23:48:48.492Z,17.67
2019-03-22T23:51:16.786Z,17.73
2019-03-22T23:53:45.069Z,17.83
2019-03-22T23:56:13.375Z,16.67
2019-03-22T23:58:41.725Z,18.13
